Time;durP1;ratioP1;P1;durP2;ratioP2;P2;SDS_P1;SDS_P2;PMS_P1;PMS_P2;Temp;Humidity;BMP_temperature;BMP_pressure;BME280_temperature;BME280_humidity;BME280_pressure;Samples;Min_cycle;Max_cycle;Signal;HPM_P1;HPM_P2
2023/06/08 00:02:10;;;;;;;7.30;3.97;;;;;;;16.50;73.73;101155.78;6250212;22;20031;-78
2023/06/08 00:04:40;;;;;;;6.05;5.32;;;;;;;16.51;73.57;101159.25;6252836;22;20020;-77
2023/06/08 00:07:10;;;;;;;7.82;4.65;;;;;;;16.51;73.93;101159.25;6251834;22;20538;-78
2023/06/08 00:09:38;;;;;;;7.95;4.47;;;;;;;16.54;73.63;101167.09;6252313;22;20046;-78
2023/06/08 00:12:06;;;;;;;6.35;4.47;;;;;;;16.51;73.08;101162.75;6251309;22;20495;-77
2023/06/08 00:14:36;;;;;;;7.25;4.68;;;;;;;16.49;73.52;101166.34;6250648;22;20016;-81
2023/06/08 00:17:05;;;;;;;10.27;4.38;;;;;;;16.49;73.36;101167.25;6250278;22;20447;-77
2023/06/08 00:19:36;;;;;;;8.40;4.32;;;;;;;16.48;72.92;101168.13;6250189;22;20513;-79
2023/06/08 00:22:05;;;;;;;4.25;3.58;;;;;;;16.47;72.73;101169.03;6250115;22;20069;-78
2023/06/08 00:24:36;;;;;;;6.97;3.67;;;;;;;16.45;72.57;101176.16;6250766;22;20032;-77
2023/06/08 00:27:04;;;;;;;11.02;4.18;;;;;;;16.43;72.37;101175.31;6250692;22;20019;-77
2023/06/08 00:29:37;;;;;;;13.02;5.03;;;;;;;16.43;71.74;101175.31;6252435;22;20008;-77
2023/06/08 00:35:44;;;;;;;7.63;3.90;;;;;;;16.43;71.41;101161.25;6277819;22;20018;-79
2023/06/08 00:38:11;;;;;;;6.97;4.38;;;;;;;16.46;71.46;101167.28;6224690;22;20011;-77
2023/06/08 00:40:38;;;;;;;6.22;4.20;;;;;;;16.49;70.98;101161.94;6226482;22;20073;-78
2023/06/08 00:43:06;;;;;;;8.98;4.88;;;;;;;16.50;70.68;101163.69;6224903;22;20027;-77
2023/06/08 00:45:32;;;;;;;12.88;4.75;;;;;;;16.51;70.39;101159.25;6251280;22;20016;-77
2023/06/08 00:48:00;;;;;;;7.25;3.55;;;;;;;16.51;70.36;101156.63;6225658;22;20039;-78
2023/06/08 00:50:28;;;;;;;8.45;4.57;;;;;;;16.51;70.35;101156.63;6250652;22;20097;-78
2023/06/08 00:52:55;;;;;;;7.85;4.00;;;;;;;16.47;70.28;101153.19;6250683;22;20020;-78
2023/06/08 00:55:24;;;;;;;8.10;4.10;;;;;;;16.44;70.32;101165.59;6224544;22;20039;-80
2023/06/08 00:57:52;;;;;;;6.10;4.30;;;;;;;16.40;70.89;101156.03;6225207;22;20020;-77
2023/06/08 01:00:21;;;;;;;7.55;4.25;;;;;;;16.37;70.88;101160.50;6247772;22;20018;-85
2023/06/08 01:02:48;;;;;;;6.57;3.90;;;;;;;16.34;70.84;101152.63;6232715;22;20047;-78
2023/06/08 01:05:16;;;;;;;7.53;5.43;;;;;;;16.27;71.62;101158.97;6240255;22;20110;-78
2023/06/08 01:08:11;;;;;;;7.22;4.47;;;;;;;16.18;72.43;101154.78;6235535;22;20345;-77
2023/06/08 01:10:57;;;;;;;6.63;4.25;;;;;;;16.14;72.64;101158.41;6235234;22;20472;-80
2023/06/08 01:13:42;;;;;;;7.47;4.35;;;;;;;16.08;73.20;101155.91;6237086;22;20018;-78
2023/06/08 01:16:11;;;;;;;7.85;4.72;;;;;;;16.02;73.07;101153.41;6214256;22;20030;-79
2023/06/08 01:18:41;;;;;;;9.70;4.82;;;;;;;15.97;73.52;101161.44;6237814;22;20012;-91
2023/06/08 01:21:43;;;;;;;7.20;4.85;;;;;;;15.95;73.73;101154.47;6236622;22;20024;-81
2023/06/08 01:24:23;;;;;;;6.93;4.22;;;;;;;15.90;73.70;101154.56;6241477;22;20098;-77
2023/06/08 01:26:50;;;;;;;7.65;4.75;;;;;;;15.87;74.02;101158.13;6242021;22;20050;-79
2023/06/08 01:29:21;;;;;;;10.55;5.25;;;;;;;15.84;74.12;101150.31;6238709;22;20085;-79
2023/06/08 01:31:50;;;;;;;13.52;5.60;;;;;;;15.82;73.91;101143.31;6211296;22;20044;-78
2023/06/08 01:34:17;;;;;;;9.07;5.05;;;;;;;15.78;74.41;101134.56;6240209;22;20051;-81
2023/06/08 01:37:14;;;;;;;8.93;5.53;;;;;;;15.76;74.48;101136.38;6240683;22;20020;-77
2023/06/08 01:39:57;;;;;;;11.57;5.20;;;;;;;15.74;74.71;101132.03;6236565;22;20107;-84
2023/06/08 01:42:25;;;;;;;9.98;4.75;;;;;;;15.70;74.47;101128.59;6238384;22;20039;-82
2023/06/08 01:45:00;;;;;;;9.07;4.35;;;;;;;15.69;74.90;101126.84;6274047;22;20020;-78
2023/06/08 01:47:35;;;;;;;8.55;4.97;;;;;;;15.65;74.81;101130.47;6245413;22;20020;-85
2023/06/08 01:50:03;;;;;;;7.03;4.68;;;;;;;15.61;74.75;101124.38;6243218;22;20015;-78
2023/06/08 01:52:30;;;;;;;8.45;4.93;;;;;;;15.57;75.23;101128.00;6240833;22;20022;-78
2023/06/08 01:54:56;;;;;;;13.65;5.47;;;;;;;15.53;75.50;101128.97;6216835;22;20138;-81
2023/06/08 01:57:22;;;;;;;12.57;6.10;;;;;;;15.51;75.88;101129.03;6242068;22;20015;-78
2023/06/08 01:59:49;;;;;;;11.32;5.20;;;;;;;15.43;76.14;101124.81;6268665;22;20029;-86
2023/06/08 02:02:16;;;;;;;12.18;5.50;;;;;;;15.39;76.98;101130.13;6238733;22;20031;-79
2023/06/08 02:04:43;;;;;;;10.00;4.70;;;;;;;15.38;76.94;101130.16;6268860;22;20016;-83
2023/06/08 02:07:09;;;;;;;14.68;5.18;;;;;;;15.39;77.20;101137.19;6210960;22;20027;-82
2023/06/08 02:09:36;;;;;;;10.55;5.22;;;;;;;15.34;77.15;101129.38;6240821;22;20122;-84
2023/06/08 02:12:10;;;;;;;7.60;5.13;;;;;;;15.29;78.10;101133.00;6232962;22;20015;-81
2023/06/08 02:14:37;;;;;;;12.93;5.65;;;;;;;15.29;77.89;101135.63;6235578;22;20023;-87
2023/06/08 02:17:05;;;;;;;10.90;4.50;;;;;;;15.25;78.06;101139.25;6237147;22;20031;-77
2023/06/08 02:19:32;;;;;;;11.88;5.80;;;;;;;15.21;78.34;101134.03;6240093;22;20027;-85
2023/06/08 02:22:00;;;;;;;7.07;4.53;;;;;;;15.16;78.64;101133.25;6231862;23;20016;-78
2023/06/08 02:24:27;;;;;;;10.75;5.40;;;;;;;15.16;78.61;101138.53;6205322;23;20012;-80
2023/06/08 02:26:54;;;;;;;7.70;5.15;;;;;;;15.15;79.28;101128.03;6234714;23;20035;-78
2023/06/08 02:29:21;;;;;;;12.15;5.35;;;;;;;15.15;78.91;101126.25;6209489;23;20020;-77
2023/06/08 02:31:47;;;;;;;12.43;6.20;;;;;;;15.13;79.70;101130.66;6231024;23;20023;-77
2023/06/08 02:34:15;;;;;;;5.70;5.00;;;;;;;15.10;79.79;101124.63;6234262;23;20024;-81
2023/06/08 02:36:42;;;;;;;20.08;8.18;;;;;;;15.07;80.22;101119.38;6233712;23;20106;-82
2023/06/08 02:39:09;;;;;;;7.32;5.05;;;;;;;15.02;80.62;101130.91;6230492;23;20360;-80
2023/06/08 02:41:35;;;;;;;11.38;4.68;;;;;;;14.97;80.72;101124.00;6231704;23;20031;-82
2023/06/08 02:44:03;;;;;;;10.68;5.90;;;;;;;14.95;80.84;101131.91;6233997;23;20070;-81
2023/06/08 02:46:31;;;;;;;11.35;5.75;;;;;;;14.92;81.34;101129.34;6234725;23;20016;-85
2023/06/08 02:48:57;;;;;;;10.55;6.13;;;;;;;14.89;81.64;101122.34;6235262;23;20024;-84
2023/06/08 02:51:24;;;;;;;7.70;5.90;;;;;;;14.85;82.28;101125.09;6207133;23;20645;-78
2023/06/08 02:53:50;;;;;;;15.13;6.53;;;;;;;14.82;82.55;101125.13;6207596;23;20062;-81
2023/06/08 02:56:17;;;;;;;19.23;7.93;;;;;;;14.79;82.65;101130.47;6231885;23;20078;-83
2023/06/08 02:58:46;;;;;;;11.73;5.68;;;;;;;14.74;82.75;101124.41;6234528;22;20074;-78
2023/06/08 03:01:16;;;;;;;11.38;5.88;;;;;;;14.70;83.22;101113.91;6233612;23;20026;-87
2023/06/08 03:03:43;;;;;;;8.93;5.95;;;;;;;14.70;83.24;101120.97;6206706;23;20028;-78
2023/06/08 03:06:12;;;;;;;10.82;6.07;;;;;;;14.63;83.86;101107.00;6233988;23;20020;-78
2023/06/08 03:08:40;;;;;;;12.30;6.13;;;;;;;14.64;84.00;101111.41;6235026;23;20438;-78
2023/06/08 03:11:06;;;;;;;12.32;5.88;;;;;;;14.61;84.18;101107.94;6231741;23;20400;-80
2023/06/08 03:13:34;;;;;;;11.05;6.63;;;;;;;14.57;84.50;101104.47;6207696;23;20447;-88
2023/06/08 03:16:01;;;;;;;12.40;5.88;;;;;;;14.54;84.90;101097.50;6234625;23;20012;-82
2023/06/08 03:18:27;;;;;;;10.90;6.68;;;;;;;14.50;84.49;101097.59;6234660;23;20566;-86
2023/06/08 03:20:55;;;;;;;11.68;6.13;;;;;;;14.44;85.71;101100.34;6233210;23;20016;-80
2023/06/08 03:23:22;;;;;;;13.38;6.65;;;;;;;14.41;86.03;101103.03;6232280;23;20297;-85
2023/06/08 03:25:50;;;;;;;12.05;7.10;;;;;;;14.34;86.44;101103.13;6233794;23;20028;-83
2023/06/08 03:28:18;;;;;;;13.50;6.63;;;;;;;14.31;86.63;101102.31;6229062;22;20521;-84
2023/06/08 03:30:45;;;;;;;13.48;6.88;;;;;;;14.31;86.70;101105.81;6233238;23;20016;-84
2023/06/08 03:33:12;;;;;;;16.70;6.50;;;;;;;14.30;86.90;101112.00;6232755;23;20024;-78
2023/06/08 03:35:39;;;;;;;10.73;6.88;;;;;;;14.30;87.39;101100.56;6233638;23;20408;-80
2023/06/08 03:38:05;;;;;;;20.23;7.28;;;;;;;14.27;87.75;101108.53;6235734;23;20043;-90
2023/06/08 03:40:32;;;;;;;10.48;5.95;;;;;;;14.27;87.92;101113.81;6230523;22;20024;-92
2023/06/08 03:42:58;;;;;;;10.85;6.75;;;;;;;14.26;88.96;101112.91;6234605;23;20055;-79
2023/06/08 03:45:25;;;;;;;11.90;6.65;;;;;;;14.25;89.60;101112.94;6237060;23;20020;-84
2023/06/08 03:47:52;;;;;;;10.07;7.03;;;;;;;14.19;90.16;101109.53;6235845;23;20016;-79
2023/06/08 03:50:18;;;;;;;14.13;8.13;;;;;;;14.19;91.00;101109.53;6236168;23;20362;-88
2023/06/08 03:52:45;;;;;;;16.02;7.93;;;;;;;14.13;90.90;101117.53;6233869;23;20427;-78
2023/06/08 03:55:12;;;;;;;13.00;7.13;;;;;;;14.14;91.04;101114.00;6239046;23;20312;-79
2023/06/08 03:57:39;;;;;;;16.27;7.43;;;;;;;14.14;90.85;101119.25;6214471;23;20074;-82
2023/06/08 04:00:09;;;;;;;12.15;7.05;;;;;;;14.17;90.72;101113.06;6242544;23;20017;-85
2023/06/08 04:02:36;;;;;;;15.00;7.65;;;;;;;14.17;90.92;101132.38;6242689;23;20012;-91
2023/06/08 04:05:02;;;;;;;17.00;7.38;;;;;;;14.17;91.19;101131.50;6214145;23;20020;-85
2023/06/08 04:07:29;;;;;;;13.32;7.95;;;;;;;14.19;91.21;101121.81;6237168;23;20020;-83
2023/06/08 04:09:57;;;;;;;12.27;7.13;;;;;;;14.17;91.13;101127.13;6238765;23;20020;-93
2023/06/08 04:12:23;;;;;;;13.63;8.13;;;;;;;14.08;91.45;101122.00;6205088;23;20024;-81
2023/06/08 04:14:50;;;;;;;12.73;7.28;;;;;;;14.06;91.82;101124.63;6212975;23;20027;-81
2023/06/08 04:17:16;;;;;;;15.13;8.00;;;;;;;14.03;92.20;101132.59;6210998;23;20432;-85
2023/06/08 04:19:43;;;;;;;9.52;7.80;;;;;;;14.02;92.35;101124.72;6240737;22;20009;-78
2023/06/08 04:22:09;;;;;;;15.45;8.15;;;;;;;14.03;92.42;101127.34;6209680;23;20328;-78
2023/06/08 04:24:38;;;;;;;12.57;7.90;;;;;;;14.06;92.50;101122.00;6210592;23;20106;-80
2023/06/08 04:27:05;;;;;;;13.90;7.68;;;;;;;14.06;92.30;101122.00;6237015;23;20424;-79
2023/06/08 04:29:32;;;;;;;11.90;8.27;;;;;;;14.07;92.31;101128.16;6231763;22;20012;-79
2023/06/08 04:31:58;;;;;;;12.85;7.25;;;;;;;14.04;92.68;101133.47;6208021;23;20387;-85
2023/06/08 04:34:25;;;;;;;17.98;8.43;;;;;;;14.08;92.58;101127.28;6236862;23;20094;-79
2023/06/08 04:36:52;;;;;;;16.90;8.25;;;;;;;14.07;92.54;101112.38;6240270;23;20098;-78
2023/06/08 04:39:18;;;;;;;18.67;8.60;;;;;;;14.05;92.57;101112.41;6238455;23;20641;-83
2023/06/08 04:41:46;;;;;;;14.23;7.72;;;;;;;14.02;92.82;101122.97;6212741;23;20340;-81
2023/06/08 04:44:13;;;;;;;13.18;8.13;;;;;;;14.01;93.05;101115.94;6237766;22;20368;-82
2023/06/08 04:46:42;;;;;;;12.65;7.57;;;;;;;14.02;93.21;101128.22;6238168;23;20070;-81
2023/06/08 04:49:10;;;;;;;17.73;8.88;;;;;;;13.98;93.07;101137.06;6233236;23;20448;-79
2023/06/08 04:51:39;;;;;;;13.07;9.05;;;;;;;13.99;93.74;101123.03;6238329;22;20017;-80
2023/06/08 04:54:13;;;;;;;16.90;9.27;;;;;;;13.98;93.49;101129.16;6239915;23;20416;-85
2023/06/08 04:56:43;;;;;;;;;;;;;;;13.95;94.28;101126.59;6242397;22;20107;-78
2023/06/08 04:59:10;;;;;;;18.42;8.02;;;;;;;14.01;93.74;101123.84;6237943;23;19923;-78
2023/06/08 05:01:37;;;;;;;15.63;8.43;;;;;;;14.06;93.59;101131.69;6238555;23;20020;-79
2023/06/08 05:04:07;;;;;;;18.20;9.18;;;;;;;14.14;93.28;101134.19;6238078;23;20066;-88
2023/06/08 05:06:34;;;;;;;13.93;7.80;;;;;;;14.15;93.18;101130.69;6238306;23;20024;-81
2023/06/08 05:09:01;;;;;;;15.65;8.95;;;;;;;14.23;92.79;101121.72;6235236;23;20420;-81
2023/06/08 05:11:28;;;;;;;14.38;8.25;;;;;;;14.35;92.13;101132.97;6232120;23;20020;-80
2023/06/08 05:13:54;;;;;;;16.83;8.77;;;;;;;14.44;91.95;101131.94;6232460;23;20012;-84
2023/06/08 05:16:21;;;;;;;15.25;8.05;;;;;;;14.43;91.61;101128.47;6209252;23;20047;-80
2023/06/08 05:18:47;;;;;;;15.38;8.57;;;;;;;14.48;91.92;101128.34;6235278;23;20048;-79
2023/06/08 05:21:14;;;;;;;13.73;8.85;;;;;;;14.55;91.49;101117.69;6234719;23;20020;-84
2023/06/08 05:23:41;;;;;;;14.15;8.50;;;;;;;14.58;91.02;101115.91;6237165;23;20092;-83
2023/06/08 05:26:07;;;;;;;14.05;8.82;;;;;;;14.58;91.19;101121.19;6239996;23;20498;-82
2023/06/08 05:28:34;;;;;;;14.35;8.02;;;;;;;14.60;91.36;101119.38;6240556;23;20074;-79
2023/06/08 05:41:25;;;;;;;15.98;8.80;;;;;;;14.64;91.23;101118.44;6114105;23;20025;-78
2023/06/08 05:43:52;;;;;;;17.90;9.05;;;;;;;14.71;91.50;101118.31;6239936;23;20055;-77
2023/06/08 05:46:19;;;;;;;21.58;11.07;;;;;;;14.74;91.10;101111.25;6191352;23;20048;-77
2023/06/08 05:48:45;;;;;;;14.80;9.30;;;;;;;14.76;91.04;101118.22;6217370;23;20027;-77
2023/06/08 05:51:11;;;;;;;13.73;9.18;;;;;;;14.74;91.29;101117.38;6241285;23;20020;-79
2023/06/08 05:53:38;;;;;;;15.50;8.80;;;;;;;14.74;91.37;101117.38;6232343;22;20008;-81
2023/06/08 05:56:05;;;;;;;17.13;8.75;;;;;;;14.86;91.24;101121.53;6234910;23;20020;-94
2023/06/08 05:58:31;;;;;;;13.10;8.02;;;;;;;14.99;90.64;101115.16;6235171;23;20084;-83
2023/06/08 06:00:59;;;;;;;15.23;8.80;;;;;;;15.14;90.11;101119.22;6261066;23;20096;-82
2023/06/08 06:03:26;;;;;;;16.42;8.75;;;;;;;15.26;90.02;101117.25;6261471;23;20091;-88
2023/06/08 06:05:53;;;;;;;16.95;9.32;;;;;;;15.36;88.84;101116.16;6235060;23;20008;-86
2023/06/08 06:08:19;;;;;;;13.15;8.65;;;;;;;15.46;88.31;101112.41;6254136;23;20123;-84
2023/06/08 06:10:46;;;;;;;16.10;9.32;;;;;;;15.51;88.24;101112.31;6247809;23;20092;-78
2023/06/08 06:13:12;;;;;;;14.85;9.88;;;;;;;15.66;87.23;101106.69;6262332;23;19999;-82
2023/06/08 06:15:39;;;;;;;12.65;8.35;;;;;;;15.77;86.87;101109.06;6258587;23;20081;-77
2023/06/08 06:18:06;;;;;;;16.27;9.05;;;;;;;15.86;86.33;101114.16;6256832;23;20019;-91
2023/06/08 06:20:33;;;;;;;16.92;8.68;;;;;;;15.97;86.01;101123.59;6251624;23;20034;-78
2023/06/08 06:22:59;;;;;;;18.42;10.65;;;;;;;16.06;85.14;101117.22;6246408;23;20020;-78
2023/06/08 06:25:29;;;;;;;19.67;10.85;;;;;;;16.06;85.67;101119.88;6246408;23;20024;-83
2023/06/08 06:27:55;;;;;;;19.75;9.23;;;;;;;16.20;84.83;101113.38;6247334;23;20020;-78
2023/06/08 06:30:22;;;;;;;17.67;8.48;;;;;;;16.36;84.14;101120.88;6217317;23;20051;-79
2023/06/08 06:32:48;;;;;;;12.77;8.32;;;;;;;16.44;83.58;101129.50;6241629;23;20008;-81
2023/06/08 06:35:15;;;;;;;10.73;9.02;;;;;;;16.53;82.80;101117.78;6215179;23;20039;-82
2023/06/08 06:37:41;;;;;;;16.48;10.13;;;;;;;16.58;82.65;101118.53;6240269;23;20016;-82
2023/06/08 06:40:08;;;;;;;15.23;9.10;;;;;;;16.63;81.76;101126.34;6240404;23;20016;-79
2023/06/08 06:42:37;;;;;;;19.38;8.82;;;;;;;16.68;81.34;101127.09;6240488;23;20022;-78
2023/06/08 06:45:05;;;;;;;14.20;9.60;;;;;;;16.73;81.18;101130.50;6215300;23;20024;-77
2023/06/08 06:47:31;;;;;;;13.85;8.55;;;;;;;16.83;80.62;101136.38;6239830;23;20024;-80
2023/06/08 06:49:58;;;;;;;17.55;8.88;;;;;;;16.85;80.15;101137.22;6215376;23;20103;-79
2023/06/08 06:52:24;;;;;;;18.13;9.75;;;;;;;16.80;79.76;101136.47;6238850;23;20023;-80
2023/06/08 06:54:50;;;;;;;11.65;8.63;;;;;;;16.75;80.19;101139.25;6238788;23;20101;-82
2023/06/08 06:57:17;;;;;;;22.63;9.18;;;;;;;16.83;79.95;101141.66;6214792;23;20020;-81
2023/06/08 06:59:45;;;;;;;17.15;8.85;;;;;;;16.79;80.01;101129.44;6215650;23;20402;-78
2023/06/08 07:02:12;;;;;;;15.00;9.98;;;;;;;16.88;79.84;101139.75;6238727;23;20047;-78
2023/06/08 07:04:40;;;;;;;15.05;9.85;;;;;;;16.91;78.52;101142.38;6214558;23;20030;-83
2023/06/08 07:07:07;;;;;;;16.35;8.82;;;;;;;16.97;78.79;101139.56;6238572;23;20099;-79
2023/06/08 07:09:33;;;;;;;15.90;10.68;;;;;;;17.09;78.45;101132.19;6239879;23;20022;-84
2023/06/08 07:12:00;;;;;;;15.48;9.55;;;;;;;17.30;77.92;101128.03;6237450;23;20016;-81
2023/06/08 07:14:26;;;;;;;13.25;8.88;;;;;;;17.50;76.77;101127.47;6242440;23;20016;-83
2023/06/08 07:16:53;;;;;;;16.17;9.27;;;;;;;17.65;75.97;101132.28;6239892;23;20462;-81
2023/06/08 07:19:19;;;;;;;19.63;10.55;;;;;;;17.85;74.23;101125.50;6215205;23;20840;-81
2023/06/08 07:21:46;;;;;;;15.63;10.00;;;;;;;18.12;74.05;101118.47;6221229;23;20047;-85
2023/06/08 07:24:12;;;;;;;14.63;8.95;;;;;;;18.67;71.84;101122.81;6189366;23;20012;-77
2023/06/08 07:26:39;;;;;;;16.25;10.02;;;;;;;19.04;69.51;101118.84;6215659;23;20422;-79
2023/06/08 07:29:05;;;;;;;17.80;10.02;;;;;;;19.16;68.61;101126.38;6215445;23;20020;-92
2023/06/08 07:31:32;;;;;;;14.93;9.50;;;;;;;19.23;68.12;101124.34;6215949;23;20078;-79
2023/06/08 07:33:58;;;;;;;16.60;10.75;;;;;;;19.24;67.53;101125.19;6215590;23;20019;-80
2023/06/08 07:36:28;;;;;;;14.98;9.95;;;;;;;18.99;68.04;101142.03;6214268;23;20448;-82
2023/06/08 07:38:56;;;;;;;12.95;10.05;;;;;;;19.51;66.10;101139.22;6217846;23;20016;-81
2023/06/08 07:41:24;;;;;;;18.40;11.05;;;;;;;19.76;63.99;101133.78;6216801;23;20016;-79
2023/06/08 07:43:51;;;;;;;16.85;8.63;;;;;;;19.78;64.84;101131.94;6191716;23;20020;-81
2023/06/08 07:46:17;;;;;;;17.48;9.35;;;;;;;19.59;65.10;101136.25;6215700;23;20043;-80
2023/06/08 07:48:44;;;;;;;19.10;9.98;;;;;;;19.18;66.95;101128.97;6243663;23;20016;-79
2023/06/08 07:51:10;;;;;;;10.05;8.05;;;;;;;19.42;67.08;101129.81;6191674;23;20103;-81
2023/06/08 07:53:38;;;;;;;14.48;8.30;;;;;;;20.16;64.32;101139.31;6215311;23;20018;-81
2023/06/08 07:56:05;;;;;;;16.38;10.13;;;;;;;20.64;61.24;101122.22;6216166;23;20051;-77
2023/06/08 07:58:32;;;;;;;15.25;9.82;;;;;;;21.19;59.44;101130.50;6215566;23;20104;-79
2023/06/08 08:01:00;;;;;;;18.77;10.00;;;;;;;22.02;56.95;101118.56;6216052;23;20031;-78
2023/06/08 08:03:27;;;;;;;14.65;8.80;;;;;;;23.00;54.34;101122.47;6214937;23;20020;-86
2023/06/08 08:05:54;;;;;;;11.88;8.90;;;;;;;23.81;51.89;101120.75;6243399;23;20024;-78
2023/06/08 08:08:21;;;;;;;13.23;8.90;;;;;;;24.67;49.85;101129.09;6217062;23;20020;-82
2023/06/08 08:10:48;;;;;;;18.25;10.30;;;;;;;25.04;47.97;101134.00;6214140;23;20024;-84
2023/06/08 08:13:15;;;;;;;13.18;9.88;;;;;;;24.53;49.12;101129.91;6210884;23;20426;-80
2023/06/08 08:15:41;;;;;;;13.05;8.73;;;;;;;24.40;49.50;101121.75;6214106;23;20024;-78
2023/06/08 08:18:08;;;;;;;16.45;8.70;;;;;;;24.17;49.79;101127.59;6188935;23;20024;-79
2023/06/08 08:20:35;;;;;;;14.10;8.10;;;;;;;23.85;50.05;101136.50;6215504;22;20023;-78
2023/06/08 08:23:01;;;;;;;13.13;9.48;;;;;;;23.64;49.90;101132.41;6191402;23;20027;-79
2023/06/08 08:25:28;;;;;;;10.38;7.82;;;;;;;23.51;49.75;101127.72;6216853;23;20020;-79
2023/06/08 08:27:54;;;;;;;12.13;9.38;;;;;;;23.49;50.27;101124.28;6219096;23;20012;-84
2023/06/08 08:30:21;;;;;;;14.90;10.07;;;;;;;23.82;48.73;101128.69;6206912;23;20398;-78
2023/06/08 08:32:47;;;;;;;9.63;8.63;;;;;;;24.18;48.14;101122.16;6222343;23;20016;-79
2023/06/08 08:35:14;;;;;;;10.68;8.55;;;;;;;24.55;47.66;101128.00;6220049;23;20453;-79
2023/06/08 08:37:42;;;;;;;16.38;9.77;;;;;;;24.42;47.40;101119.00;6217960;23;20016;-82
2023/06/08 08:40:11;;;;;;;15.02;10.15;;;;;;;23.90;47.98;101115.75;6216691;23;20016;-77
2023/06/08 08:42:45;;;;;;;14.48;9.70;;;;;;;23.75;48.92;101116.59;6191222;23;20047;-78
2023/06/08 08:45:13;;;;;;;13.05;7.85;;;;;;;24.13;48.59;101110.88;6190816;23;20024;-78
2023/06/08 08:47:40;;;;;;;15.23;10.13;;;;;;;24.17;48.55;101108.88;6192378;23;20019;-83
2023/06/08 08:50:09;;;;;;;11.75;9.13;;;;;;;24.35;48.13;101101.56;6215795;23;20016;-85
2023/06/08 08:52:39;;;;;;;16.52;9.95;;;;;;;24.64;46.95;101104.31;6217065;23;20024;-83
2023/06/08 08:55:07;;;;;;;14.30;9.75;;;;;;;24.77;47.09;101111.53;6217291;23;20437;-83
2023/06/08 08:57:34;;;;;;;15.48;9.18;;;;;;;24.71;47.20;101116.41;6215774;23;20069;-83
2023/06/08 09:00:01;;;;;;;14.77;10.23;;;;;;;24.74;47.09;101119.75;6215653;23;20086;-81
2023/06/08 09:02:27;;;;;;;13.00;8.57;;;;;;;24.65;47.55;101116.75;6216598;23;20080;-79
2023/06/08 09:04:54;;;;;;;10.25;7.88;;;;;;;24.27;48.44;101118.97;6217094;23;20024;-79
2023/06/08 09:07:24;;;;;;;17.20;9.70;;;;;;;23.96;49.09;101114.53;6240479;23;20050;-79
2023/06/08 09:10:13;;;;;;;14.15;8.95;;;;;;;24.03;48.91;101110.56;6216916;23;20050;-83
2023/06/08 09:12:42;;;;;;;12.27;9.00;;;;;;;23.74;49.43;101098.84;6227532;23;20114;-80
2023/06/08 09:15:16;;;;;;;13.77;10.77;;;;;;;23.74;49.84;101102.38;6214285;23;20024;-79
2023/06/08 09:17:44;;;;;;;12.43;8.45;;;;;;;23.77;49.72;101098.66;6239746;23;20040;-80
2023/06/08 09:20:12;;;;;;;18.02;10.57;;;;;;;23.74;49.89;101101.50;6217590;22;20547;-85
2023/06/08 09:22:40;;;;;;;14.55;10.10;;;;;;;23.64;49.90;101101.19;6245807;22;20521;-80
2023/06/08 09:25:07;;;;;;;14.98;10.43;;;;;;;23.77;50.12;101098.66;6244617;22;20011;-86
2023/06/08 09:27:35;;;;;;;19.38;11.23;;;;;;;23.52;50.77;101096.50;6220563;22;20409;-77
2023/06/08 09:30:23;;;;;;;17.52;11.35;;;;;;;23.27;51.19;101098.78;6246749;22;20016;-78
2023/06/08 09:32:50;;;;;;;15.30;9.10;;;;;;;23.29;51.67;101106.69;6219880;22;20023;-78
2023/06/08 09:35:23;;;;;;;14.43;10.05;;;;;;;23.66;50.57;101096.59;6243314;22;20343;-85
2023/06/08 09:37:54;;;;;;;13.88;10.15;;;;;;;23.74;50.15;101107.72;6223233;22;20034;-78
2023/06/08 09:40:22;;;;;;;15.70;11.50;;;;;;;24.02;49.39;101102.63;6226122;22;20323;-79
2023/06/08 09:42:53;;;;;;;13.93;9.30;;;;;;;24.19;49.00;101102.47;6224303;22;20031;-78
2023/06/08 09:45:21;;;;;;;12.90;10.95;;;;;;;24.24;48.88;101103.06;6225284;22;20011;-79
2023/06/08 09:47:48;;;;;;;18.42;11.15;;;;;;;24.44;48.40;101104.56;6249847;22;20086;-79
2023/06/08 09:50:15;;;;;;;16.92;10.63;;;;;;;24.22;48.75;101105.00;6249465;22;20378;-79
2023/06/08 09:52:48;;;;;;;15.35;10.75;;;;;;;24.05;48.93;101103.31;6248708;22;20413;-81
2023/06/08 09:55:17;;;;;;;11.65;9.20;;;;;;;24.05;49.50;101099.75;6224548;22;20051;-78
2023/06/08 09:57:45;;;;;;;13.25;9.88;;;;;;;23.93;49.52;101107.53;6250496;22;20012;-78
2023/06/08 10:00:19;;;;;;;17.42;10.57;;;;;;;23.70;50.38;101099.97;6249395;22;20459;-78
2023/06/08 10:02:59;;;;;;;13.18;11.18;;;;;;;23.48;50.42;101105.66;6250690;22;20015;-81
2023/06/08 10:05:33;;;;;;;18.42;12.65;;;;;;;23.09;51.76;101103.28;6249502;22;20015;-79
2023/06/08 10:08:02;;;;;;;14.88;11.27;;;;;;;22.67;53.15;101103.75;6225351;22;20015;-79
2023/06/08 10:10:39;;;;;;;11.73;9.98;;;;;;;22.42;53.67;101108.59;6246393;22;20446;-82
2023/06/08 10:13:06;;;;;;;16.77;11.55;;;;;;;22.31;53.85;101102.91;6246276;22;20011;-85
2023/06/08 10:15:33;;;;;;;32.88;13.68;;;;;;;22.18;54.63;101096.47;6246996;22;20022;-79
2023/06/08 10:18:00;;;;;;;18.92;13.82;;;;;;;22.05;55.11;101101.56;6246274;22;20025;-78
2023/06/08 10:20:30;;;;;;;17.08;10.70;;;;;;;22.00;55.63;101104.44;6214969;23;20100;-80
2023/06/08 10:23:02;;;;;;;19.42;12.23;;;;;;;21.96;56.45;101109.06;6239084;23;20444;-86
2023/06/08 10:25:33;;;;;;;17.60;13.52;;;;;;;21.73;56.86;101112.88;6240015;22;20020;-79
2023/06/08 10:28:08;;;;;;;20.95;13.85;;;;;;;21.52;57.74;101104.06;6240700;23;20031;-78
2023/06/08 10:30:41;;;;;;;21.98;14.55;;;;;;;21.54;58.08;101099.56;6239137;23;20043;-79
2023/06/08 10:33:19;;;;;;;18.67;11.32;;;;;;;21.66;57.85;101098.13;6238855;23;20119;-79
2023/06/08 10:36:08;;;;;;;19.25;12.18;;;;;;;21.86;58.92;101096.28;6236324;23;20031;-79
2023/06/08 10:38:56;;;;;;;19.15;11.35;;;;;;;21.83;61.26;101088.44;6239264;23;20070;-79
2023/06/08 10:41:58;;;;;;;17.73;10.88;;;;;;;21.51;63.28;101090.81;6255291;23;20024;-93
2023/06/08 10:44:33;;;;;;;17.85;9.75;;;;;;;21.42;64.63;101098.31;6257562;23;20012;-78
2023/06/08 10:47:06;;;;;;;16.30;10.63;;;;;;;21.29;65.81;101094.53;6242980;23;20024;-79
2023/06/08 10:49:34;;;;;;;19.95;12.35;;;;;;;21.13;65.60;101087.25;6241369;23;20032;-79
2023/06/08 10:52:06;;;;;;;15.50;11.27;;;;;;;21.11;66.51;101086.44;6214300;23;20052;-79
2023/06/08 10:54:51;;;;;;;21.23;11.85;;;;;;;21.02;67.02;101083.34;6239255;23;20016;-83
2023/06/08 10:57:43;;;;;;;20.15;11.52;;;;;;;20.98;68.39;101091.47;6238759;23;20335;-79
2023/06/08 11:00:22;;;;;;;18.63;12.38;;;;;;;20.85;70.35;101094.78;6240722;22;20604;-78
2023/06/08 11:02:55;;;;;;;15.90;12.90;;;;;;;21.02;69.99;101084.22;6238739;22;20070;-79
2023/06/08 11:05:23;;;;;;;16.95;10.80;;;;;;;21.10;70.81;101076.72;6237411;23;20110;-83
2023/06/08 11:07:53;;;;;;;13.77;11.20;;;;;;;21.18;69.70;101073.72;6236462;23;20040;-86
2023/06/08 11:10:24;;;;;;;19.92;11.95;;;;;;;21.18;70.26;101073.72;6235118;23;20506;-79
2023/06/08 11:12:51;;;;;;;18.08;10.35;;;;;;;21.43;69.85;101076.09;6235537;23;20099;-85
2023/06/08 11:15:19;;;;;;;16.63;11.07;;;;;;;21.51;68.53;101070.41;6238220;23;20422;-84
2023/06/08 11:17:56;;;;;;;16.27;10.80;;;;;;;21.60;68.74;101074.44;6239649;23;20026;-80
2023/06/08 11:20:29;;;;;;;18.05;10.55;;;;;;;21.78;67.28;101070.88;6238388;22;20028;-78
2023/06/08 11:22:56;;;;;;;21.00;12.15;;;;;;;22.00;66.27;101056.47;6213116;23;20024;-79
2023/06/08 11:25:24;;;;;;;20.88;10.35;;;;;;;22.36;64.76;101052.00;6237889;23;20161;-81
2023/06/08 11:27:53;;;;;;;15.57;11.07;;;;;;;22.77;62.72;101051.63;6238735;23;20400;-78
2023/06/08 11:30:27;;;;;;;15.52;11.30;;;;;;;23.15;59.90;101055.84;6238699;23;20048;-78
2023/06/08 11:32:55;;;;;;;18.10;11.02;;;;;;;23.59;58.52;101053.31;6211656;23;20020;-89
2023/06/08 11:35:22;;;;;;;19.48;11.20;;;;;;;24.12;56.41;101053.00;6238795;23;20119;-84
2023/06/08 11:37:54;;;;;;;17.85;10.93;;;;;;;24.53;55.45;101056.78;6214096;23;20413;-82
2023/06/08 11:40:21;;;;;;;16.17;10.00;;;;;;;24.91;52.50;101046.41;6237143;23;20024;-78